Archival Weather

Chicago O'Hare International

Chicago, Illinois (KORD)

Report from: Tuesday, December 6, 2022 1:51 AM CST
Current time: Friday, June 21, 2024 3:41 AM CDT

Current weather – Weather history – Daily summaries
Weather forecast

Temperature3.9°C (39.0°F)
Wind chill1.5°C (34.8°F)
Dew point0.0°C (32.0°F)
Winds 5 kts (2.6 m/s, 5.8 mph) East-Southeast (120°)
Visibility10 mi. (16.1 km)
Clouds Few clouds 2,400 ft. (732 m)
Ceiling: Broken clouds 3,500 ft. (1,067 m)
Overcast 8,000 ft. (2,438 m)
Altimeter29.93 in.Hg (1014 mB)
Relative humidity76 %
Density altitude-1,274 ft. (-388 m)
Sea-level pressure101.4 kPa (1014 mB, 29.94 in.Hg)
Remarks Automated weather observing station with precipitation discriminator
Flight conditions Visual Meteorological Conditions
Raw dataKORD 060751Z 12005KT 10SM FEW024 BKN035 OVC080 04/00 A2993 RMK AO2 SLP139 T00390000
An error has occurred. This application may no longer respond until reloaded. Reload 🗙